Terminal Aerodrome Forecast
Issued by NWS

Home | Current Version | Previous Version | Text Only | Print | Product List | Glossary On
Versions: 1 2 3 4 5 6 7 8 9 10 11 12 13 14 15 16 17 18 19 20 21 22 23 24 25 26 27 28 29 30 31
000
FTUS44 KFWD 262300
TAFGKY
TAF
KGKY 262337Z 2700/2724 15011KT P6SM BKN020
     FM270200 18005KT 6SM BR SCT007 OVC012
     FM270400 19004KT 3SM BR OVC006
     FM270830 32011KT 5SM -DZ OVC008
     FM271000 33015KT P6SM OVC012
     FM271400 34017G27KT P6SM OVC025
     FM272000 35016KT P6SM VCSH OVC035=

USA.gov is the U.S. government's official web portal to all federal, state and local government web resources and services.